Coffee Creek, Montana
Current Conditions -  °F | °C
As of 3:54 PM on Monday 24 Nov 2014 (Local Time) from KLWT Reporting Station
Scattered Clouds Scattered Clouds  
Wind Chill: 28°   Ceiling: Unl
Heat Index: 37°   Visibility: 10mi
Dew Point: 17°   Wind: 14mph
Humidity: 44%   Direction: 270°W
Pressure: 30.07"   Gusts: NA
Location:  47.34°N, 110.08°W
Report Text: KLWT 242254Z AUTO 27012KT 10SM SCT060 03/M08 A3007 RMK AO2 SLP207 T00281083
Loading
Personal Weather Stations






























Interactive Weather Map New forecast layout! Learn more

10-Day Weather Forecast

Advertisements
Track Severe Weather on mobile